Sunday, July 22, 2018, 8:40 AM EDT
Back to Local

KWWD, Wildwood, Cape May County Airport

Location: Villas, NJ, United States Lat: 39.017
Local Time: 8:40 AM EDT (12:40 GMT) Lon: -74.917
Time Zone: US/Eastern Elev: 22 ft

Show me the last for .
Show Decoded

2018-07-22 07:55 METAR KWWD 221155Z AUTO RMK AO2 SLPNO 6//// 7//// PWINO FZRANO $ =
2018-07-22 06:55 METAR KWWD 221055Z AUTO RMK AO2 SLPNO PWINO FZRANO $ =
2018-07-22 05:55 METAR KWWD 220955Z AUTO RMK AO2 SLPNO PWINO FZRANO $ =
2018-07-22 04:55 METAR KWWD 220855Z AUTO RMK AO2 SLPNO 6//// PWINO FZRANO $ =
2018-07-22 03:55 METAR KWWD 220755Z AUTO RMK AO2 SLPNO PWINO FZRANO $ =
2018-07-22 02:55 METAR KWWD 220655Z AUTO RMK AO2 SLPNO PWINO FZRANO $ =
2018-07-22 01:55 METAR KWWD 220555Z AUTO RMK AO2 SLPNO 6//// PWINO FZRANO $ =
2018-07-22 00:55 METAR KWWD 220455Z AUTO RMK AO2 SLPNO 402440211 PWINO FZRANO $ =
2018-07-21 23:55 METAR KWWD 220355Z AUTO RMK AO2 SLPNO PWINO FZRANO $ =
2018-07-21 22:55 METAR KWWD 220255Z AUTO 23/22 RMK AO2 RAEMM SLPNO P0027 60079 T02280222 PWINO $
                 =
2018-07-21 22:41 METAR KWWD 220241Z AUTO 4SM -RA BR 23/22 RMK AO2 P0027 $ =
2018-07-21 21:55 METAR KWWD 220155Z AUTO 08021G27KT 2SM +RA BR OVC006 23/22 A2968 RMK AO2 PK WND
                 07028/0136 CIG 004V010 SLP053 P0043 T02280222 =
2018-07-21 21:37 METAR KWWD 220137Z AUTO 07022G28KT 2 1/2SM +RA BR OVC009 23/22 A2969 RMK AO2 PK
                 WND 07028/0136 CIG 006V012 PRESFR P0015 =
2018-07-21 20:55 METAR KWWD 220055Z AUTO 07016G22KT 3SM RA BR BKN009 BKN015 OVC023 23/22 A2974
                 RMK AO2 PK WND 07026/0037 RAB26 CIG 004V011 SLP072 P0009 T02280217 =
2018-07-21 20:19 METAR KWWD 220019Z AUTO 08017G23KT 10SM FEW008 BKN029 OVC100 23/21 A2976 RMK AO2
                 =
2018-07-21 20:05 METAR KWWD 220005Z AUTO 08013G22KT 10SM SCT010 BKN029 OVC090 23/22 A2976 RMK AO2
                 =
2018-07-21 19:55 METAR KWWD 212355Z AUTO 08013G21KT 10SM SCT010 OVC040 23/22 A2977 RMK AO2
                 RAB04E31 SLP083 P0000 60092 T02280217 10228 20217 58021 =
2018-07-21 19:33 METAR KWWD 212333Z AUTO 09013G19KT 10SM SCT008 OVC040 23/21 A2978 RMK AO2
                 RAB04E31 P0000 =
2018-07-21 18:55 METAR KWWD 212255Z AUTO 09013G20KT 9SM BKN008 BKN035 OVC046 22/21 A2980 RMK AO2
                 RAE43 SLP093 P0004 T02220211 =
2018-07-21 18:22 METAR KWWD 212222Z AUTO 09013G18KT 3SM -RA BR SCT008 BKN050 OVC060 22/21 A2981
                 RMK AO2 P0004 =
2018-07-21 17:55 METAR KWWD 212155Z AUTO 09010KT 5SM -RA BR FEW010 SCT036 OVC047 22/22 A2983 RMK
                 AO2 SLP103 P0007 T02220217 =
2018-07-21 17:23 METAR KWWD 212123Z AUTO 10010KT 5SM -RA BR SCT005 BKN020 OVC028 22/21 A2985 RMK
                 AO2 P0006 =
2018-07-21 17:06 METAR KWWD 212106Z AUTO 09016G22KT 3SM RA BR OVC005 23/22 A2985 RMK AO2 CIG
                 003V007 P0004 =
2018-07-21 16:55 METAR KWWD 212055Z AUTO 09013G19KT 1 1/2SM +RA BR OVC005 23/22 A2985 RMK AO2
                 SLP111 P0065 60081 T02280222 56013 TSNO =
2018-07-21 16:26 METAR KWWD 212026Z AUTO 07009G18KT 1 1/4SM +RA BR OVC005 22/22 A2986 RMK AO2
                 P0028 =
2018-07-21 16:12 METAR KWWD 212012Z AUTO 07015G22KT 2 1/2SM +RA BR OVC005 22/22 A2986 RMK AO2
                 P0007 =
2018-07-21 16:01 METAR KWWD 212001Z AUTO 06015G23KT 3SM RA BR OVC007 22/21 A2986 RMK AO2 P0002 =
2018-07-21 15:55 METAR KWWD 211955Z AUTO 07014G22KT 2 1/2SM RA BR OVC007 22/21 A2986 RMK AO2 PK
                 WND 07026/1922 SLP115 P0013 T02170211 =
2018-07-21 15:53 METAR KWWD 211953Z AUTO 07017G22KT 2 1/2SM +RA BR OVC007 22/21 A2986 RMK AO2 PK
                 WND 07026/1922 P0012 =
2018-07-21 14:55 METAR KWWD 211855Z AUTO 07013G23KT 6SM -RA BR OVC007 22/21 A2989 RMK AO2 PK WND
                 07027/1819 SLP125 P0003 T02170206 =
2018-07-21 13:55 METAR KWWD 211755Z AUTO 07015G26KT 5SM -RA BR OVC007 22/21 A2992 RMK AO2 PK WND
                 08026/1753 CIG 007V011 SLP133 P0011 60054 T02170206 10244 20211 58023 =
2018-07-21 13:13 METAR KWWD 211713Z AUTO 07013G18KT 4SM -RA BR OVC009 22/21 A2994 RMK AO2 CIG
                 006V011 P0007 =
2018-07-21 13:02 METAR KWWD 211702Z AUTO 07014G21KT 2SM +RA BR OVC007 22/21 A2994 RMK AO2 VIS 1
                 1/2V3 CIG 006V011 P0004 =
2018-07-21 12:55 METAR KWWD 211655Z AUTO 07015G20KT 3SM +RA BR OVC007 22/21 A2994 RMK AO2 CIG
                 006V010 SLP142 P0011 T02170206 =
2018-07-21 11:55 METAR KWWD 211555Z AUTO 07013G18KT 6SM -RA BR OVC007 22/21 A2997 RMK AO2 CIG
                 004V010 SLP150 P0029 T02170206 =
2018-07-21 11:46 METAR KWWD 211546Z AUTO 08015G20KT 3SM -RA BR BKN007 OVC014 22/21 A2997 RMK AO2
                 CIG 004V011 P0029 =
2018-07-21 11:38 METAR KWWD 211538Z AUTO 08015G19KT 1 1/2SM +RA BR BKN007 OVC014 22/21 A2998 RMK
                 AO2 CIG 004V011 P0028 =
2018-07-21 11:30 METAR KWWD 211530Z AUTO 07013G18KT 1SM +RA BR SCT009 OVC014 22/21 A2999 RMK AO2
                 P0022 =
2018-07-21 11:24 METAR KWWD 211524Z AUTO 09013G18KT 2SM +RA BR FEW009 OVC014 22/21 A2999 RMK AO2
                 VIS 1V5 P0009 =
2018-07-21 10:55 METAR KWWD 211455Z AUTO 07010G18KT 5SM RA BR BKN018 OVC026 22/21 A2999 RMK AO2
                 RAB04 SLP157 P0003 60003 T02220206 58004 =
2018-07-21 10:15 METAR KWWD 211415Z AUTO 07012G17KT 10SM -RA FEW017 BKN028 OVC075 23/20 A2999 RMK
                 AO2 RAB04 P0000 =
2018-07-21 09:55 METAR KWWD 211355Z AUTO 08011G17KT 10SM SCT017 BKN030 OVC080 23/20 A2999 RMK AO2
                 SLP159 T02330200 =
2018-07-21 09:52 METAR KWWD 211352Z AUTO 09012G17KT 10SM SCT017 BKN030 OVC080 24/20 A2999 RMK AO2
                 =
2018-07-21 09:22 METAR KWWD 211322Z AUTO 09012G17KT 10SM BKN017 BKN038 OVC085 24/21 A3000 RMK AO2
                 =
2018-07-21 08:55 METAR KWWD 211255Z AUTO 08009G15KT 10SM SCT015 BKN040 OVC047 23/21 A3000 RMK AO2
                 SLP161 T02330206 =

Support USWX by starting your Amazon purchase here.